Pacific Pilot Two — CG2436 — position and weather

sailwx.info

Track history (hours):
 
Tides and Currents Weather Stations Pressure Air Temp Water Temp Dewpoint Dewpoint Depression Visibility Wind Speed Wind Dir Waves Ship Positions

Pacific Pilot Two

Last reported at 2015-Apr-01 13:33 UTC. Time now 2015-Apr-01 14:28 UTC.
Position N 48°25' W 123°23'.

MMSI: 316005175.

Date/timePositionNaut miles runAvg speedWind from/ knotsBaromVisibWave heightAir tempDewpointWater temp
2015-Apr-01 13:33N 48°25' W 123°23'0 0.0
2015-Apr-01 12:33N 48°25' W 123°23'0 0.0
2015-Apr-01 11:33N 48°25' W 123°23'0 0.0
2015-Apr-01 10:33N 48°25' W 123°23'0 0.0
2015-Apr-01 09:33N 48°25' W 123°23'0 0.0
2015-Apr-01 08:33N 48°25' W 123°23'0 0.0
2015-Apr-01 07:33N 48°25' W 123°23'0 0.0
2015-Apr-01 06:33N 48°25' W 123°23'0 0.0
2015-Apr-01 05:33N 48°25' W 123°23'0 0.0
2015-Apr-01 04:33N 48°25' W 123°23'0 0.0
2015-Apr-01 03:33N 48°25' W 123°23'0 0.0
2015-Apr-01 02:33N 48°25' W 123°23'0 0.0
2015-Apr-01 01:33N 48°25' W 123°23'0 0.0
2015-Apr-01 00:33N 48°25' W 123°23'0 0.0
2015-Mar-31 23:33N 48°25' W 123°23'0 0.0
2015-Mar-31 22:33N 48°25' W 123°23'0 0.0
2015-Mar-31 21:33N 48°25' W 123°23'0 0.0
2015-Mar-31 20:33N 48°25' W 123°23'0 0.0
2015-Mar-31 19:33N 48°25' W 123°23'3 3.1
2015-Mar-31 18:33N 48°22' W 123°22'3 3.1
2015-Mar-31 17:33N 48°25' W 123°23'0 0.0
2015-Mar-31 16:33N 48°25' W 123°23'0 0.0
2015-Mar-31 15:33N 48°25' W 123°23'0 0.0
2015-Mar-31 14:33N 48°25' W 123°23'0 0.0
2015-Mar-31 13:33N 48°25' W 123°23'0 0.0
2015-Mar-31 12:33N 48°25' W 123°23'0 0.0
2015-Mar-31 11:33N 48°25' W 123°23'0 0.0
2015-Mar-31 10:33N 48°25' W 123°23'0 0.0
2015-Mar-31 09:33N 48°25' W 123°23'0 0.0
2015-Mar-31 08:33N 48°25' W 123°23'0 0.0
2015-Mar-31 07:33N 48°25' W 123°23'0 0.0
2015-Mar-31 06:33N 48°25' W 123°23'0 0.0
2015-Mar-31 05:33N 48°25' W 123°23'0 0.0
2015-Mar-31 04:33N 48°25' W 123°23'0 0.0
2015-Mar-31 03:33N 48°25' W 123°23'0 0.0
2015-Mar-31 02:33N 48°25' W 123°23'0 0.0
2015-Mar-31 01:33N 48°25' W 123°23'0 0.0
2015-Mar-31 00:33N 48°25' W 123°23'0 0.0
2015-Mar-30 23:33N 48°25' W 123°23'0 0.0
2015-Mar-30 22:33N 48°25' W 123°23'0 0.0
2015-Mar-30 21:33N 48°25' W 123°23'0 0.0
2015-Mar-30 20:33N 48°25' W 123°23'0 0.0
2015-Mar-30 19:33N 48°25' W 123°23'0 0.0
2015-Mar-30 18:33N 48°25' W 123°23'0 0.0
2015-Mar-30 17:33N 48°25' W 123°23'0 0.0
2015-Mar-30 16:33N 48°25' W 123°23'0 0.0
2015-Mar-30 15:33N 48°25' W 123°23'0 0.0
2015-Mar-30 14:33N 48°25' W 123°23'0 0.0
2015-Mar-30 13:33N 48°25' W 123°23'0 0.0
2015-Mar-30 12:33N 48°25' W 123°23'0 0.0
2015-Mar-30 11:33N 48°25' W 123°23'0 0.0
2015-Mar-30 10:33N 48°25' W 123°23'0 0.0
2015-Mar-30 09:33N 48°25' W 123°23'0 0.0
2015-Mar-30 08:33N 48°25' W 123°23'0 0.0
2015-Mar-30 07:33N 48°25' W 123°23'0 0.0
2015-Mar-30 06:33N 48°25' W 123°23'0 0.0
2015-Mar-30 05:33N 48°25' W 123°23'0 0.0
2015-Mar-30 04:33N 48°25' W 123°23'0 0.0
2015-Mar-30 03:33N 48°25' W 123°23'0 0.0
2015-Mar-30 02:33N 48°25' W 123°23'0 0.0
2015-Mar-30 01:33N 48°25' W 123°23'0 0.0
2015-Mar-30 00:33N 48°25' W 123°23'0 0.0
2015-Mar-29 23:33N 48°25' W 123°23'0 0.0
2015-Mar-29 22:33N 48°25' W 123°23'0 0.0
2015-Mar-29 21:33N 48°25' W 123°23'0 0.0
2015-Mar-29 20:33N 48°25' W 123°23'0 0.0
2015-Mar-29 19:33N 48°25' W 123°23'0 0.0
2015-Mar-29 18:33N 48°25' W 123°23'0 0.0
2015-Mar-29 17:33N 48°25' W 123°23'0 0.0
2015-Mar-28 22:34N 48°25' W 123°23'0 0.0
2015-Mar-28 21:34N 48°25' W 123°23'0 0.0
2015-Mar-28 20:34N 48°25' W 123°23'0 0.0
2015-Mar-28 19:34N 48°25' W 123°23'0 0.0
2015-Mar-28 18:33N 48°25' W 123°23'1 1.1
2015-Mar-28 17:34N 48°24' W 123°24'1 1.1
2015-Mar-28 16:34N 48°25' W 123°23'0 0.0
2015-Mar-28 15:33N 48°25' W 123°23'0 0.0
2015-Mar-28 14:34N 48°25' W 123°23'2 2.3
2015-Mar-28 13:33N 48°24' W 123°27'4 3.9
2015-Mar-28 12:33N 48°22' W 123°22'3 3.3
2015-Mar-28 11:33N 48°25' W 123°23'0 0.0
2015-Mar-28 10:33N 48°25' W 123°23'0 0.0
2015-Mar-28 09:33N 48°25' W 123°23'0 0.0
2015-Mar-28 08:33N 48°25' W 123°23'0 0.0
2015-Mar-28 07:33N 48°25' W 123°23'0 0.0
2015-Mar-28 06:33N 48°25' W 123°23'0 0.0
2015-Mar-28 05:33N 48°25' W 123°23'0 0.0
2015-Mar-28 04:33N 48°25' W 123°23'2 1.7
2015-Mar-28 03:33N 48°24' W 123°22'1 1.3
2015-Mar-28 02:34N 48°22' W 123°21'3 2.9
2015-Mar-28 01:33N 48°25' W 123°23'1 0.8
2015-Mar-28 00:33N 48°24' W 123°23'2 2.2
2015-Mar-27 23:34N 48°23' W 123°21'3 2.9
2015-Mar-27 22:33N 48°25' W 123°23'0 0.0
2015-Mar-27 21:33N 48°25' W 123°23'0 0.0
2015-Mar-27 20:33N 48°25' W 123°23'0 0.0
2015-Mar-27 19:33N 48°25' W 123°23'0 0.0
2015-Mar-27 18:33N 48°25' W 123°23'0 0.4
2015-Mar-27 17:33N 48°25' W 123°23'0 0.4
2015-Mar-27 16:33N 48°25' W 123°23'0 0.0
2015-Mar-27 15:33N 48°25' W 123°23'0 0.0
2015-Mar-27 14:33N 48°25' W 123°23'3 2.6
2015-Mar-27 13:34N 48°22' W 123°23'3 2.6
2015-Mar-27 12:33N 48°25' W 123°23'0 0.0
2015-Mar-27 11:34N 48°25' W 123°23'0 0.0
2015-Mar-27 10:33N 48°25' W 123°23'0 0.0
2015-Mar-27 09:33N 48°25' W 123°23'0 0.0
2015-Mar-27 08:33N 48°25' W 123°23'3 3.2
2015-Mar-27 07:34N 48°22' W 123°23'3 3.2
2015-Mar-27 06:33N 48°25' W 123°23'0 0.0
2015-Mar-27 05:33N 48°25' W 123°23'0 0.0
2015-Mar-27 04:33N 48°25' W 123°23'0 0.0
2015-Mar-27 03:32N 48°25' W 123°23'0 0.0
2015-Mar-27 02:33N 48°25' W 123°23'0 0.0
2015-Mar-27 01:33N 48°25' W 123°23'0 0.3
2015-Mar-27 00:34N 48°25' W 123°24'3 2.7
2015-Mar-26 23:32N 48°24' W 123°27'2 2.2
2015-Mar-26 22:33N 48°23' W 123°24'2 1.6
2015-Mar-26 21:33N 48°25' W 123°24'0 0.2
2015-Mar-26 20:33N 48°25' W 123°23'0 0.0
2015-Mar-26 19:33N 48°25' W 123°23'0 0.0
2015-Mar-26 18:33N 48°25' W 123°23'0 0.0
2015-Mar-26 17:33N 48°25' W 123°23'0 0.0
2015-Mar-26 16:34N 48°25' W 123°23'0 0.0
2015-Mar-26 15:33N 48°25' W 123°23'0 0.0
2015-Mar-26 14:33N 48°25' W 123°23'0 0.0
2015-Mar-26 13:33N 48°25' W 123°23'0 0.0
2015-Mar-26 12:33N 48°25' W 123°23'0 0.0
2015-Mar-26 11:34N 48°25' W 123°23'0 0.0
2015-Mar-26 10:33N 48°25' W 123°23'0 0.0
2015-Mar-26 09:33N 48°25' W 123°23'0 0.0
2015-Mar-26 08:34N 48°25' W 123°23'0 0.0
2015-Mar-26 07:33N 48°25' W 123°23'0 0.0
2015-Mar-26 06:33N 48°25' W 123°23'0 0.0
2015-Mar-26 05:33N 48°25' W 123°23'0 0.0
2015-Mar-26 04:33N 48°25' W 123°23'0 0.0
2015-Mar-26 03:33N 48°25' W 123°23'0 0.0
2015-Mar-26 02:33N 48°25' W 123°23'0 0.0
2015-Mar-26 01:33N 48°25' W 123°23'0 0.0
2015-Mar-26 00:33N 48°25' W 123°23'1 0.7
2015-Mar-25 23:34N 48°24' W 123°24'1 0.7
2015-Mar-25 22:33N 48°25' W 123°23'0 0.0
2015-Mar-25 21:33N 48°25' W 123°23'0 0.0
2015-Mar-25 20:33N 48°25' W 123°23'0 0.0
2015-Mar-25 19:33N 48°25' W 123°23'0 0.0
2015-Mar-25 18:33N 48°25' W 123°23'0 0.0
2015-Mar-25 17:33N 48°25' W 123°23'0 0.0
2015-Mar-25 16:33N 48°25' W 123°23'0 0.0
2015-Mar-25 15:33N 48°25' W 123°23'0 0.0
2015-Mar-25 14:33N 48°25' W 123°23'0 0.0
2015-Mar-25 13:33N 48°25' W 123°23'0 0.0
2015-Mar-25 12:33N 48°25' W 123°23'0 0.0
2015-Mar-25 11:33N 48°25' W 123°23'0 0.0
2015-Mar-25 10:33N 48°25' W 123°23'0 0.0
2015-Mar-25 09:33N 48°25' W 123°23'0 0.0
2015-Mar-25 08:33N 48°25' W 123°23'0 0.0
2015-Mar-25 07:33N 48°25' W 123°23'0 0.0
2015-Mar-25 06:31N 48°25' W 123°23'0 0.0
2015-Mar-25 05:33N 48°25' W 123°23'0 0.0
2015-Mar-25 04:33N 48°25' W 123°23'0 0.0
2015-Mar-25 03:33N 48°25' W 123°23'0 0.0
2015-Mar-25 02:33N 48°25' W 123°23'0 0.0
2015-Mar-25 01:33N 48°25' W 123°23'0 0.0
2015-Mar-25 00:33N 48°25' W 123°23'0 0.0
2015-Mar-24 23:33N 48°25' W 123°23'0 0.0
2015-Mar-24 22:33N 48°25' W 123°23'0 0.0
2015-Mar-24 21:33N 48°25' W 123°23'0 0.0
2015-Mar-24 20:33N 48°25' W 123°23'0 0.0
2015-Mar-24 19:33N 48°25' W 123°23'0 0.0
2015-Mar-24 18:33N 48°25' W 123°23'0 0.0
2015-Mar-24 17:33N 48°25' W 123°23'0 0.0
2015-Mar-24 16:33N 48°25' W 123°23'0 0.0
2015-Mar-24 15:33N 48°25' W 123°23'0 0.0
2015-Mar-24 14:33N 48°25' W 123°23'0 0.0
2015-Mar-24 13:33N 48°25' W 123°23'0 0.0
2015-Mar-24 12:33N 48°25' W 123°23'0 0.0
2015-Mar-24 11:33N 48°25' W 123°23'0 0.0
2015-Mar-24 10:33N 48°25' W 123°23'0 0.0
2015-Mar-24 09:33N 48°25' W 123°23'0 0.0
2015-Mar-24 08:33N 48°25' W 123°23'0 0.0
2015-Mar-24 07:33N 48°25' W 123°23'0 0.0
2015-Mar-24 06:33N 48°25' W 123°23'0 0.0
2015-Mar-24 05:33N 48°25' W 123°23'0 0.0
2015-Mar-24 04:33N 48°25' W 123°23'0 0.0
2015-Mar-24 03:33N 48°25' W 123°23'0 0.0
2015-Mar-24 02:33N 48°25' W 123°23'0 0.0
2015-Mar-24 01:33N 48°25' W 123°23'0 0.0
2015-Mar-24 00:33N 48°25' W 123°23'0 0.0
2015-Mar-23 23:33N 48°25' W 123°23'0 0.0
2015-Mar-23 22:33N 48°25' W 123°23'0 0.0
2015-Mar-23 21:33N 48°25' W 123°23'0 0.0
2015-Mar-23 20:33N 48°25' W 123°23'0 0.0
2015-Mar-23 19:33N 48°25' W 123°23'0 0.0
2015-Mar-23 18:33N 48°25' W 123°23'0 0.0
2015-Mar-23 17:33N 48°25' W 123°23'0 0.0
2015-Mar-23 16:33N 48°25' W 123°23'0 0.0
2015-Mar-23 15:33N 48°25' W 123°23'0 0.0
2015-Mar-23 14:33N 48°25' W 123°23'0 0.0
2015-Mar-23 13:33N 48°25' W 123°23'0 0.0
2015-Mar-23 12:33N 48°25' W 123°23'0 0.0
2015-Mar-23 11:33N 48°25' W 123°23'0 0.0
2015-Mar-23 10:33N 48°25' W 123°23'0 0.0
2015-Mar-23 09:33N 48°25' W 123°23'0 0.0
2015-Mar-23 08:33N 48°25' W 123°23'0 0.0
2015-Mar-23 07:33N 48°25' W 123°23'0 0.0
2015-Mar-23 06:33N 48°25' W 123°23'0 0.0
2015-Mar-23 05:33N 48°25' W 123°23'0 0.0
2015-Mar-23 04:33N 48°25' W 123°23'0 0.0
2015-Mar-23 03:33N 48°25' W 123°23'0 0.0
2015-Mar-23 02:33N 48°25' W 123°23'0 0.0
2015-Mar-23 01:33N 48°25' W 123°23'0 0.0
2015-Mar-23 00:33N 48°25' W 123°23'0 0.0
2015-Mar-22 23:33N 48°25' W 123°23'0 0.0
2015-Mar-22 22:33N 48°25' W 123°23'0 0.0
2015-Mar-22 21:33N 48°25' W 123°23'0 0.0
2015-Mar-22 20:33N 48°25' W 123°23'0 0.0
2015-Mar-22 19:33N 48°25' W 123°23'0 0.1
2015-Mar-22 18:33N 48°25' W 123°23'0 0.1
2015-Mar-22 17:33N 48°25' W 123°23'0 0.0
2015-Mar-22 16:33N 48°25' W 123°23'0 0.0
2015-Mar-22 15:33N 48°25' W 123°23'0 0.0
2015-Mar-22 14:33N 48°25' W 123°23'0 0.0
2015-Mar-22 13:33N 48°25' W 123°23'  
Track history (hours):
 
Tides and Currents Weather Stations Pressure Air Temp Water Temp Dewpoint Dewpoint Depression Visibility Wind Speed Wind Dir Waves Ship Positions

Pacific Pilot Two

Last reported at 2015-Apr-01 13:33 UTC. Time now 2015-Apr-01 14:28 UTC.
Position N 48°25' W 123°23'.

MMSI: 316005175.

Date/timePositionNaut miles runAvg speedWind from/ knotsBaromVisibWave heightAir tempDewpointWater temp
2015-Apr-01 13:33N 48°25' W 123°23'0 0.0
2015-Apr-01 12:33N 48°25' W 123°23'0 0.0
2015-Apr-01 11:33N 48°25' W 123°23'0 0.0
2015-Apr-01 10:33N 48°25' W 123°23'0 0.0
2015-Apr-01 09:33N 48°25' W 123°23'0 0.0
2015-Apr-01 08:33N 48°25' W 123°23'0 0.0
2015-Apr-01 07:33N 48°25' W 123°23'0 0.0
2015-Apr-01 06:33N 48°25' W 123°23'0 0.0
2015-Apr-01 05:33N 48°25' W 123°23'0 0.0
2015-Apr-01 04:33N 48°25' W 123°23'0 0.0
2015-Apr-01 03:33N 48°25' W 123°23'0 0.0
2015-Apr-01 02:33N 48°25' W 123°23'0 0.0
2015-Apr-01 01:33N 48°25' W 123°23'0 0.0
2015-Apr-01 00:33N 48°25' W 123°23'0 0.0
2015-Mar-31 23:33N 48°25' W 123°23'0 0.0
2015-Mar-31 22:33N 48°25' W 123°23'0 0.0
2015-Mar-31 21:33N 48°25' W 123°23'0 0.0
2015-Mar-31 20:33N 48°25' W 123°23'0 0.0
2015-Mar-31 19:33N 48°25' W 123°23'3 3.1
2015-Mar-31 18:33N 48°22' W 123°22'3 3.1
2015-Mar-31 17:33N 48°25' W 123°23'0 0.0
2015-Mar-31 16:33N 48°25' W 123°23'0 0.0
2015-Mar-31 15:33N 48°25' W 123°23'0 0.0
2015-Mar-31 14:33N 48°25' W 123°23'0 0.0
2015-Mar-31 13:33N 48°25' W 123°23'0 0.0
2015-Mar-31 12:33N 48°25' W 123°23'0 0.0
2015-Mar-31 11:33N 48°25' W 123°23'0 0.0
2015-Mar-31 10:33N 48°25' W 123°23'0 0.0
2015-Mar-31 09:33N 48°25' W 123°23'0 0.0
2015-Mar-31 08:33N 48°25' W 123°23'0 0.0
2015-Mar-31 07:33N 48°25' W 123°23'0 0.0
2015-Mar-31 06:33N 48°25' W 123°23'0 0.0
2015-Mar-31 05:33N 48°25' W 123°23'0 0.0
2015-Mar-31 04:33N 48°25' W 123°23'0 0.0
2015-Mar-31 03:33N 48°25' W 123°23'0 0.0
2015-Mar-31 02:33N 48°25' W 123°23'0 0.0
2015-Mar-31 01:33N 48°25' W 123°23'0 0.0
2015-Mar-31 00:33N 48°25' W 123°23'0 0.0
2015-Mar-30 23:33N 48°25' W 123°23'0 0.0
2015-Mar-30 22:33N 48°25' W 123°23'0 0.0
2015-Mar-30 21:33N 48°25' W 123°23'0 0.0
2015-Mar-30 20:33N 48°25' W 123°23'0 0.0
2015-Mar-30 19:33N 48°25' W 123°23'0 0.0
2015-Mar-30 18:33N 48°25' W 123°23'0 0.0
2015-Mar-30 17:33N 48°25' W 123°23'0 0.0
2015-Mar-30 16:33N 48°25' W 123°23'0 0.0
2015-Mar-30 15:33N 48°25' W 123°23'0 0.0
2015-Mar-30 14:33N 48°25' W 123°23'0 0.0
2015-Mar-30 13:33N 48°25' W 123°23'0 0.0
2015-Mar-30 12:33N 48°25' W 123°23'0 0.0
2015-Mar-30 11:33N 48°25' W 123°23'0 0.0
2015-Mar-30 10:33N 48°25' W 123°23'0 0.0
2015-Mar-30 09:33N 48°25' W 123°23'0 0.0
2015-Mar-30 08:33N 48°25' W 123°23'0 0.0
2015-Mar-30 07:33N 48°25' W 123°23'0 0.0
2015-Mar-30 06:33N 48°25' W 123°23'0 0.0
2015-Mar-30 05:33N 48°25' W 123°23'0 0.0
2015-Mar-30 04:33N 48°25' W 123°23'0 0.0
2015-Mar-30 03:33N 48°25' W 123°23'0 0.0
2015-Mar-30 02:33N 48°25' W 123°23'0 0.0
2015-Mar-30 01:33N 48°25' W 123°23'0 0.0
2015-Mar-30 00:33N 48°25' W 123°23'0 0.0
2015-Mar-29 23:33N 48°25' W 123°23'0 0.0
2015-Mar-29 22:33N 48°25' W 123°23'0 0.0
2015-Mar-29 21:33N 48°25' W 123°23'0 0.0
2015-Mar-29 20:33N 48°25' W 123°23'0 0.0
2015-Mar-29 19:33N 48°25' W 123°23'0 0.0
2015-Mar-29 18:33N 48°25' W 123°23'0 0.0
2015-Mar-29 17:33N 48°25' W 123°23'0 0.0
2015-Mar-28 22:34N 48°25' W 123°23'0 0.0
2015-Mar-28 21:34N 48°25' W 123°23'0 0.0
2015-Mar-28 20:34N 48°25' W 123°23'0 0.0
2015-Mar-28 19:34N 48°25' W 123°23'0 0.0
2015-Mar-28 18:33N 48°25' W 123°23'1 1.1
2015-Mar-28 17:34N 48°24' W 123°24'1 1.1
2015-Mar-28 16:34N 48°25' W 123°23'0 0.0
2015-Mar-28 15:33N 48°25' W 123°23'0 0.0
2015-Mar-28 14:34N 48°25' W 123°23'2 2.3
2015-Mar-28 13:33N 48°24' W 123°27'4 3.9
2015-Mar-28 12:33N 48°22' W 123°22'3 3.3
2015-Mar-28 11:33N 48°25' W 123°23'0 0.0
2015-Mar-28 10:33N 48°25' W 123°23'0 0.0
2015-Mar-28 09:33N 48°25' W 123°23'0 0.0
2015-Mar-28 08:33N 48°25' W 123°23'0 0.0
2015-Mar-28 07:33N 48°25' W 123°23'0 0.0
2015-Mar-28 06:33N 48°25' W 123°23'0 0.0
2015-Mar-28 05:33N 48°25' W 123°23'0 0.0
2015-Mar-28 04:33N 48°25' W 123°23'2 1.7
2015-Mar-28 03:33N 48°24' W 123°22'1 1.3
2015-Mar-28 02:34N 48°22' W 123°21'3 2.9
2015-Mar-28 01:33N 48°25' W 123°23'1 0.8
2015-Mar-28 00:33N 48°24' W 123°23'2 2.2
2015-Mar-27 23:34N 48°23' W 123°21'3 2.9
2015-Mar-27 22:33N 48°25' W 123°23'0 0.0
2015-Mar-27 21:33N 48°25' W 123°23'0 0.0
2015-Mar-27 20:33N 48°25' W 123°23'0 0.0
2015-Mar-27 19:33N 48°25' W 123°23'0 0.0
2015-Mar-27 18:33N 48°25' W 123°23'0 0.4
2015-Mar-27 17:33N 48°25' W 123°23'0 0.4
2015-Mar-27 16:33N 48°25' W 123°23'0 0.0
2015-Mar-27 15:33N 48°25' W 123°23'0 0.0
2015-Mar-27 14:33N 48°25' W 123°23'3 2.6
2015-Mar-27 13:34N 48°22' W 123°23'3 2.6
2015-Mar-27 12:33N 48°25' W 123°23'0 0.0
2015-Mar-27 11:34N 48°25' W 123°23'0 0.0
2015-Mar-27 10:33N 48°25' W 123°23'0 0.0
2015-Mar-27 09:33N 48°25' W 123°23'0 0.0
2015-Mar-27 08:33N 48°25' W 123°23'3 3.2
2015-Mar-27 07:34N 48°22' W 123°23'3 3.2
2015-Mar-27 06:33N 48°25' W 123°23'0 0.0
2015-Mar-27 05:33N 48°25' W 123°23'0 0.0
2015-Mar-27 04:33N 48°25' W 123°23'0 0.0
2015-Mar-27 03:32N 48°25' W 123°23'0 0.0
2015-Mar-27 02:33N 48°25' W 123°23'0 0.0
2015-Mar-27 01:33N 48°25' W 123°23'0 0.3
2015-Mar-27 00:34N 48°25' W 123°24'3 2.7
2015-Mar-26 23:32N 48°24' W 123°27'2 2.2
2015-Mar-26 22:33N 48°23' W 123°24'2 1.6
2015-Mar-26 21:33N 48°25' W 123°24'0 0.2
2015-Mar-26 20:33N 48°25' W 123°23'0 0.0
2015-Mar-26 19:33N 48°25' W 123°23'0 0.0
2015-Mar-26 18:33N 48°25' W 123°23'0 0.0
2015-Mar-26 17:33N 48°25' W 123°23'0 0.0
2015-Mar-26 16:34N 48°25' W 123°23'0 0.0
2015-Mar-26 15:33N 48°25' W 123°23'0 0.0
2015-Mar-26 14:33N 48°25' W 123°23'0 0.0
2015-Mar-26 13:33N 48°25' W 123°23'0 0.0
2015-Mar-26 12:33N 48°25' W 123°23'0 0.0
2015-Mar-26 11:34N 48°25' W 123°23'0 0.0
2015-Mar-26 10:33N 48°25' W 123°23'0 0.0
2015-Mar-26 09:33N 48°25' W 123°23'0 0.0
2015-Mar-26 08:34N 48°25' W 123°23'0 0.0
2015-Mar-26 07:33N 48°25' W 123°23'0 0.0
2015-Mar-26 06:33N 48°25' W 123°23'0 0.0
2015-Mar-26 05:33N 48°25' W 123°23'0 0.0
2015-Mar-26 04:33N 48°25' W 123°23'0 0.0
2015-Mar-26 03:33N 48°25' W 123°23'0 0.0
2015-Mar-26 02:33N 48°25' W 123°23'0 0.0
2015-Mar-26 01:33N 48°25' W 123°23'0 0.0
2015-Mar-26 00:33N 48°25' W 123°23'1 0.7
2015-Mar-25 23:34N 48°24' W 123°24'1 0.7
2015-Mar-25 22:33N 48°25' W 123°23'0 0.0
2015-Mar-25 21:33N 48°25' W 123°23'0 0.0
2015-Mar-25 20:33N 48°25' W 123°23'0 0.0
2015-Mar-25 19:33N 48°25' W 123°23'0 0.0
2015-Mar-25 18:33N 48°25' W 123°23'0 0.0
2015-Mar-25 17:33N 48°25' W 123°23'0 0.0
2015-Mar-25 16:33N 48°25' W 123°23'0 0.0
2015-Mar-25 15:33N 48°25' W 123°23'0 0.0
2015-Mar-25 14:33N 48°25' W 123°23'0 0.0
2015-Mar-25 13:33N 48°25' W 123°23'0 0.0
2015-Mar-25 12:33N 48°25' W 123°23'0 0.0
2015-Mar-25 11:33N 48°25' W 123°23'0 0.0
2015-Mar-25 10:33N 48°25' W 123°23'0 0.0
2015-Mar-25 09:33N 48°25' W 123°23'0 0.0
2015-Mar-25 08:33N 48°25' W 123°23'0 0.0
2015-Mar-25 07:33N 48°25' W 123°23'0 0.0
2015-Mar-25 06:31N 48°25' W 123°23'0 0.0
2015-Mar-25 05:33N 48°25' W 123°23'0 0.0
2015-Mar-25 04:33N 48°25' W 123°23'0 0.0
2015-Mar-25 03:33N 48°25' W 123°23'0 0.0
2015-Mar-25 02:33N 48°25' W 123°23'0 0.0
2015-Mar-25 01:33N 48°25' W 123°23'0 0.0
2015-Mar-25 00:33N 48°25' W 123°23'0 0.0
2015-Mar-24 23:33N 48°25' W 123°23'0 0.0
2015-Mar-24 22:33N 48°25' W 123°23'0 0.0
2015-Mar-24 21:33N 48°25' W 123°23'0 0.0
2015-Mar-24 20:33N 48°25' W 123°23'0 0.0
2015-Mar-24 19:33N 48°25' W 123°23'0 0.0
2015-Mar-24 18:33N 48°25' W 123°23'0 0.0
2015-Mar-24 17:33N 48°25' W 123°23'0 0.0
2015-Mar-24 16:33N 48°25' W 123°23'0 0.0
2015-Mar-24 15:33N 48°25' W 123°23'0 0.0
2015-Mar-24 14:33N 48°25' W 123°23'0 0.0
2015-Mar-24 13:33N 48°25' W 123°23'0 0.0
2015-Mar-24 12:33N 48°25' W 123°23'0 0.0
2015-Mar-24 11:33N 48°25' W 123°23'0 0.0
2015-Mar-24 10:33N 48°25' W 123°23'0 0.0
2015-Mar-24 09:33N 48°25' W 123°23'0 0.0
2015-Mar-24 08:33N 48°25' W 123°23'0 0.0
2015-Mar-24 07:33N 48°25' W 123°23'0 0.0
2015-Mar-24 06:33N 48°25' W 123°23'0 0.0
2015-Mar-24 05:33N 48°25' W 123°23'0 0.0
2015-Mar-24 04:33N 48°25' W 123°23'0 0.0
2015-Mar-24 03:33N 48°25' W 123°23'0 0.0
2015-Mar-24 02:33N 48°25' W 123°23'0 0.0
2015-Mar-24 01:33N 48°25' W 123°23'0 0.0
2015-Mar-24 00:33N 48°25' W 123°23'0 0.0
2015-Mar-23 23:33N 48°25' W 123°23'0 0.0
2015-Mar-23 22:33N 48°25' W 123°23'0 0.0
2015-Mar-23 21:33N 48°25' W 123°23'0 0.0
2015-Mar-23 20:33N 48°25' W 123°23'0 0.0
2015-Mar-23 19:33N 48°25' W 123°23'0 0.0
2015-Mar-23 18:33N 48°25' W 123°23'0 0.0
2015-Mar-23 17:33N 48°25' W 123°23'0 0.0
2015-Mar-23 16:33N 48°25' W 123°23'0 0.0
2015-Mar-23 15:33N 48°25' W 123°23'0 0.0
2015-Mar-23 14:33N 48°25' W 123°23'0 0.0
2015-Mar-23 13:33N 48°25' W 123°23'0 0.0
2015-Mar-23 12:33N 48°25' W 123°23'0 0.0
2015-Mar-23 11:33N 48°25' W 123°23'0 0.0
2015-Mar-23 10:33N 48°25' W 123°23'0 0.0
2015-Mar-23 09:33N 48°25' W 123°23'0 0.0
2015-Mar-23 08:33N 48°25' W 123°23'0 0.0
2015-Mar-23 07:33N 48°25' W 123°23'0 0.0
2015-Mar-23 06:33N 48°25' W 123°23'0 0.0
2015-Mar-23 05:33N 48°25' W 123°23'0 0.0
2015-Mar-23 04:33N 48°25' W 123°23'0 0.0
2015-Mar-23 03:33N 48°25' W 123°23'0 0.0
2015-Mar-23 02:33N 48°25' W 123°23'0 0.0
2015-Mar-23 01:33N 48°25' W 123°23'0 0.0
2015-Mar-23 00:33N 48°25' W 123°23'0 0.0
2015-Mar-22 23:33N 48°25' W 123°23'0 0.0
2015-Mar-22 22:33N 48°25' W 123°23'0 0.0
2015-Mar-22 21:33N 48°25' W 123°23'0 0.0
2015-Mar-22 20:33N 48°25' W 123°23'0 0.0
2015-Mar-22 19:33N 48°25' W 123°23'0 0.1
2015-Mar-22 18:33N 48°25' W 123°23'0 0.1
2015-Mar-22 17:33N 48°25' W 123°23'0 0.0
2015-Mar-22 16:33N 48°25' W 123°23'0 0.0
2015-Mar-22 15:33N 48°25' W 123°23'0 0.0
2015-Mar-22 14:33N 48°25' W 123°23'0 0.0
2015-Mar-22 13:33N 48°25' W 123°23'  

Dump ship's entire track history